Winchester, VA (22602)

11:19 AM EST on February 12, 2016 (GMT -0500)
Briarwood Estates | | Change Station
CLOSE
Current Station
Personal Weather Station
Location: Winchester, VA
Elevation: 656 ft
Nearby Weather Stations

Elev 656 ft 39.17 °N, 78.11 °W | Updated 9 seconds ago

Overcast
Overcast
27.0 °F
Feels Like 27 °F
N
2.2
Wind Variable Wind from SSE
Gusts 4.7 mph

Today
High -- | Low -- °F
--% Chance of Precip.
Yesterday
High -- | Low -- °F
Precip. -- in
Pressure 30.16 in
Visibility 10.0 miles
Clouds Overcast 9000 ft
Windchill 27 °F
Dew Point 8 °F
Humidity 44%
Rainfall 0.00 in
Snow Depth Not available.
7:08 AM 5:45 PM
Waxing Crescent, 21% visible
METAR KOKV 121615Z AUTO 18003KT 10SM OVC090 M03/M13 A3016 RMK AO2
Pressure 30.16 in
Visibility 10.0 miles
Clouds Overcast 9000 ft
Windchill 27 °F
Dew Point 8 °F
Humidity 44%
Rainfall 0.00 in
Snow Depth Not available.
7:08 AM 5:45 PM
Waxing Crescent, 21% visible
METAR KOKV 121615Z AUTO 18003KT 10SM OVC090 M03/M13 A3016 RMK AO2

10-Day Weather Forecast

Almanac

Astronomy

Feb. 12, 2016 Rise Set
Actual Time
Civil Twilight
Nautical Twilight
Astronomical Twilight
Moon
Length of Visible Light
Length of Day
Tomorrow will be .
, % of the Moon is Illuminated

Today's Extremes

State Highs State Lows

Community

WunderPhotos

Upload Photos

1,892,345 photos uploaded!

WunderBlog® & News

Nearby

Air Quality

  Air Quality AQ Index Pollutant
Not available.

Snow Depth

Station Depth Elevation

Earthquake Activity

City Distance Mag. Time & Date
Minimum magnitude displayed is 2.5.

Coastal Water Temperatures

Place Temperature

Stations

Nearby Weather Stations

Station Location Temp. Windchill Dew Point Humidity Wind Precip. Elev Updated Type
                   

Watches & Warnings

There are currently no watches in effect.